METAR Data
IDs: Format: Raw Decoded Include TAF

Data at: 0635 UTC 23 Feb 2019

PFNO 230619Z AUTO 12030G72KT 1/2SM SN FZFG OVC012 M05/M06 A2999 RMK AO2 PK WND 05072/0619 P0000 FZRANO
PFNO 230609Z AUTO 1/4SM +SN FZFG OVC012 M05/M06 A2998 RMK AO2 P0000 FZRANO
PFNO 230556Z AUTO 1/2SM SN FZFG OVC010 M05/M06 A2998 RMK AO2 SLP153 P0000 60000 T10501056 11050 21067 56000 FZRANO $
PFNO 230547Z AUTO 13028KT 1/4SM +SN FZFG OVC010 M05/M06 A2998 RMK AO2 PK WND 14033/0547 P0000 FZRANO
PFNO 230519Z AUTO 1/2SM SN FZFG OVC010 M05/M06 A2999 RMK AO2 CIG 009V013 P0000 FZRANO $
PFNO 230456Z AUTO 1/4SM +SN FZFG OVC010 M05/M06 A2998 RMK AO2 CIG 009V013 SLP154 P0000 T10501056 FZRANO $
PFNO 230443Z AUTO 1/4SM +SN FZFG OVC010 M05/M06 A2998 RMK AO2 P0000 FZRANO $
PFNO 230356Z AUTO 13030KT 1/4SM +SN FZFG OVC008 M05/M06 A2998 RMK AO2 PK WND 13033/0356 SLP151 P0000 T10501056 FZRANO
PFNO 230306Z AUTO 13028G36KT M1/4SM +SN FZFG OVC008 M06/M06 A2998 RMK AO2 P0000 FZRANO
PFNO 230256Z AUTO 13029G36KT 1/4SM +SN FZFG OVC010 M06/M07 A2998 RMK AO2 PK WND 13036/0254 SLP154 P0000 60000 T10561067 56018 FZRANO
PFNO 230156Z AUTO 13030G37KT 1/4SM +SN FZFG OVC010 M06/M07 A3000 RMK AO2 PK WND 12037/0148 SLP158 P0000 T10561067 FZRANO
PFNO 230056Z AUTO 12029KT 1/4SM +SN FZFG OVC010 M06/M07 A3001 RMK AO2 PK WND 12033/0051 SLP164 P0000 T10611072 FZRANO
PFNO 230017Z AUTO 12027KT 1/4SM +SN FZFG OVC010 M07/M07 A3003 RMK AO2 PK WND 12032/0014 P0000 FZRANO
PFNO 222356Z AUTO 12026KT 1/4SM +SN FZFG OVC008 M07/M08 A3004 RMK AO2 PK WND 12032/2337 CIG 006V010 SLP172 P0000 60000 T10671078 11056 21094 58020 FZRANO
PFNO 222329Z AUTO 11026G31KT M1/4SM +SN FZFG BKN006 OVC010 M07/M08 A3005 RMK AO2 PK WND 11031/2328 P0000 FZRANO
PFNO 222256Z AUTO 11024KT 1/4SM +SN FZFG OVC012 M07/M08 A3007 RMK AO2 PK WND 10028/2252 SLP183 P0000 T10721083 FZRANO
PFNO 222231Z AUTO 10019G26KT 1/4SM SN FZFG OVC014 M07/M08 A3008 RMK AO2 PK WND 10026/2223 P0000 FZRANO
PFNO 222216Z AUTO 09021KT 1/4SM SN FZFG FEW010 BKN016 OVC022 M07/M08 A3008 RMK AO2 P0000 FZRANO
PFNO 222156Z AUTO 08019KT 1/2SM -SN FZFG BKN010 OVC016 M08/M09 A3009 RMK AO2 SLP190 P0000 T10831094 FZRANO
PFNO 222144Z AUTO 08021KT 1/2SM -SN FZFG BKN010 OVC016 M08/M09 A3009 RMK AO2 CIG 010V014 P0000 FZRANO
PFNO 222137Z AUTO 08020KT 3/4SM -SN BR BKN010 OVC016 M08/M10 A3009 RMK AO2 CIG 010V013 P0000 FZRANO
PFNO 222107Z AUTO 08021KT 1SM -SN BR BKN013 BKN019 OVC024 M08/M09 A3009 RMK AO2 P0000 FZRANO
PFNO 222056Z AUTO 08019KT 1 1/4SM -SN BR SCT013 OVC024 M08/M09 A3009 RMK AO2 PK WND 07028/2039 SLP192 P0000 60000 T10781094 50001 FZRANO
PFNO 222051Z AUTO 08017KT 1 1/4SM -SN BR FEW013 OVC024 M08/M09 A3010 RMK AO2 PK WND 07028/2039 P0000 FZRANO
PFNO 222039Z AUTO 08025G28KT 3/4SM -SN BR OVC024 M08/M10 A3009 RMK AO2 PK WND 07028/2039 P0000 FZRANO
PFNO 222003Z AUTO 08020G26KT 1 3/4SM -SN BR BKN026 OVC031 M08/M10 A3010 RMK AO2 P0000 FZRANO
PFNO 221956Z AUTO 09020G26KT 2 1/2SM -SN OVC030 M08/M11 A3010 RMK AO2 PK WND 07032/1936 SNB06 SLP192 P0000 T10781106 FZRANO
PFNO 221947Z AUTO 08021G30KT 2SM -SN OVC028 M07/M10 A3009 RMK AO2 PK WND 07032/1936 VIS 1V3 SNB06 P0000 FZRANO
PFNO 221928Z AUTO 08021G30KT 1 3/4SM -SN BR OVC030 M07/M09 A3009 RMK AO2 PK WND 09030/1925 SNB06 P0000 FZRANO
PFNO 221856Z AUTO 10022G27KT 6SM HZ OVC030 M07/M10 A3009 RMK AO2 PK WND 10027/1856 SNE55 SLP191 P0000 T10671100 FZRANO
PFNO 221756Z AUTO 07019KT 8SM -SN OVC041 M09/M12 A3010 RMK AO2 PK WND 10026/1728 SNB32 SLP193 P0000 60000 T10941117 11067 21094 58007 FZRANO
PFNO 221656Z AUTO 08014KT 10SM OVC070 M07/M10 A3011 RMK AO2 SLP197 T10721100 FZRANO
PFNO 221556Z AUTO 11010KT 10SM FEW043 M08/M10 A3011 RMK AO2 SLP198 T10781100 FZRANO
PFNO 221456Z AUTO 11016KT 10SM OVC037 M07/M09 A3012 RMK AO2 SNE45 SLP200 P0000 60000 T10721094 51003 FZRANO
PFNO 221356Z AUTO 12018KT 8SM -SN FEW029 OVC035 M08/M10 A3012 RMK AO2 SNB35 SLP199 P0000 T10781100 FZRANO
PFNO 221315Z AUTO 12016KT 10SM OVC031 M08/M11 A3012 RMK AO2 FZRANO
PFNO 221256Z AUTO 12017KT 10SM OVC027 M08/M11 A3012 RMK AO2 SNB14E27 SLP199 P0000 T10831106 FZRANO
PFNO 221156Z AUTO 12017KT 9SM OVC027 M08/M11 A3011 RMK AO2 SNE18 SLP197 P0000 60000 T10831111 11083 21117 51009 FZRANO
PFNO 221056Z AUTO 12018KT 4SM -SN BR OVC022 M09/M11 A3010 RMK AO2 SLP194 P0000 T10891111 FZRANO
PFNO 220956Z AUTO 07015KT 9SM -SN OVC020 M11/M13 A3010 RMK AO2 SLP192 P0000 T11061133 FZRANO
PFNO 220856Z AUTO 08019KT 6SM -SN OVC022 M09/M13 A3008 RMK AO2 SLP188 P0000 60000 T10941128 410831128 51004 FZRANO
PFNO 220756Z AUTO 08017KT 10SM -SN BKN028 M12/M15 A3008 RMK AO2 SNB53 SLP187 P0000 T11171150 FZRANO
PFNO 220720Z AUTO 07017KT 10SM SCT027 SCT080 M11/M15 A3008 RMK AO2 FZRANO
PFNO 220656Z AUTO 08014KT 10SM BKN027 M11/M14 A3007 RMK AO2 SLP184 T11111144 FZRANO
PFNO 220616Z AUTO 08015G21KT 10SM OVC029 M09/M13 A3007 RMK AO2 FZRANO
PFNO 220556Z AUTO 10019G23KT 10SM OVC031 M09/M13 A3007 RMK AO2 SLP183 60000 T10941128 11083 21111 53004 FZRANO
PFNO 220546Z AUTO 09016G20KT 10SM OVC031 M11/M14 A3008 RMK AO2 FZRANO
PFNO 220509Z AUTO 09012KT 10SM OVC029 M11/M14 A3007 RMK AO2 FZRANO
PFNO 220456Z AUTO 08016KT 10SM OVC031 M11/M14 A3006 RMK AO2 SLP182 T11061144 FZRANO
PFNO 220408Z AUTO 08013KT 10SM OVC031 M10/M14 A3006 RMK AO2 FZRANO
PFNO 220356Z AUTO 06016KT 10SM OVC029 M09/M14 A3006 RMK AO2 SLP179 T10941144 FZRANO
PFNO 220328Z AUTO 08018KT 9SM OVC031 M09/M13 A3005 RMK AO2 FZRANO
PFNO 220256Z AUTO 09021G26KT 9SM OVC027 M09/M13 A3004 RMK AO2 PK WND 09026/0247 SNE19 SLP173 P0000 60000 T10891133 50000 FZRANO
PFNO 220156Z AUTO 07014KT 9SM -SN OVC027 M10/M14 A3004 RMK AO2 SLP174 P0000 T11001144 FZRANO
PFNO 220110Z AUTO 07017KT 9SM -SN BKN027 OVC031 M11/M14 A3004 RMK AO2 P0000 FZRANO
PFNO 220056Z AUTO 07017KT 9SM -SN OVC031 M11/M14 A3004 RMK AO2 SNB11 SLP173 P0000 T11061144 FZRANO
PFNO 220030Z AUTO 09019KT 9SM -SN OVC031 M09/M13 A3004 RMK AO2 SNB11 P0000 FZRANO
PFNO 212356Z AUTO 09013KT 10SM OVC029 M11/M15 A3004 RMK AO2 SLP172 60000 T11111150 11094 21122 53009 FZRANO
PFNO 212256Z AUTO 05014KT 10SM BKN029 OVC034 M11/M16 A3003 RMK AO2 SNE48 SLP169 P0000 T11061156 FZRANO
PFNO 212227Z AUTO 06013KT 10SM OVC031 M11/M15 A3003 RMK AO2 SNE20 P0000 FZRANO
PFNO 212156Z AUTO 06016KT 8SM -SN FEW023 OVC029 M11/M15 A3002 RMK AO2 SLP165 P0000 T11111150 FZRANO
PFNO 212137Z AUTO 06017KT 2SM -SN BKN027 OVC036 M11/M16 A3001 RMK AO2 P0000 FZRANO
PFNO 212129Z AUTO 06018KT 1 3/4SM -SN FEW027 OVC038 M11/M16 A3001 RMK AO2 P0000 FZRANO
PFNO 212056Z AUTO 04014KT 9SM -SN BKN040 OVC050 M12/M16 A3001 RMK AO2 PK WND 10028/2006 SNB1959 SLP163 P0000 60000 T11171161 53020 FZRANO
PFNO 211956Z AUTO 08017KT 9SM OVC045 M12/M16 A2998 RMK AO2 SLP154 T11171156 FZRANO
PFNO 211856Z AUTO 06017KT 9SM BKN043 OVC085 M12/M16 A2997 RMK AO2 SNB27E51 SLP149 P0000 T11221161 FZRANO